Time;durP1;ratioP1;P1;durP2;ratioP2;P2;SDS_P1;SDS_P2;PMS_P1;PMS_P2;Temp;Humidity;BMP_temperature;BMP_pressure;BME280_temperature;BME280_humidity;BME280_pressure;Samples;Min_cycle;Max_cycle;Signal;HPM_P1;HPM_P2
2022/06/23 00:05:36;;;;;;;12.27;5.65;;;14.40;99.90;;;;;;21060571;28;20032;-51
2022/06/23 00:15:42;;;;;;;9.10;3.60;;;14.70;99.90;;;;;;21059056;28;20112;-53
2022/06/23 00:25:52;;;;;;;11.68;4.43;;;14.60;99.90;;;;;;21058829;28;20090;-52
2022/06/23 00:35:56;;;;;;;10.17;3.80;;;14.80;99.90;;;;;;21058077;28;20036;-56
2022/06/23 00:46:17;;;;;;;14.25;3.40;;;14.70;99.90;;;;;;21056929;28;20105;-52
2022/06/23 00:56:51;;;;;;;9.68;3.25;;;14.60;99.90;;;;;;21023904;28;20059;-56
2022/06/23 01:07:03;;;;;;;6.45;2.65;;;14.30;99.90;;;;;;20971814;28;20388;-53
2022/06/23 01:17:23;;;;;;;8.73;2.22;;;14.20;99.90;;;;;;20971006;28;20380;-57
2022/06/23 01:28:03;;;;;;;6.57;2.53;;;14.00;99.90;;;;;;20954610;28;20037;-56
2022/06/23 01:38:25;;;;;;;6.78;2.67;;;14.00;99.90;;;;;;20970013;28;20044;-55
2022/06/23 01:48:53;;;;;;;10.88;2.97;;;14.00;99.90;;;;;;20968704;28;20040;-52
2022/06/23 01:59:30;;;;;;;6.60;2.42;;;14.10;99.90;;;;;;21021318;28;20359;-53
2022/06/23 02:10:01;;;;;;;8.18;2.50;;;14.10;99.90;;;;;;21069068;28;20028;-52
2022/06/23 02:20:20;;;;;;;8.25;2.65;;;14.20;99.90;;;;;;21042333;28;20040;-55
2022/06/23 02:30:38;;;;;;;11.60;2.47;;;14.30;99.90;;;;;;21049766;28;20028;-53
2022/06/23 02:41:19;;;;;;;7.55;2.20;;;14.30;99.90;;;;;;21049392;28;20102;-52
2022/06/23 02:51:32;;;;;;;4.78;1.85;;;14.30;99.90;;;;;;21048950;28;20035;-56
2022/06/23 03:02:00;;;;;;;14.00;2.55;;;14.30;99.90;;;;;;20971841;28;20545;-54
2022/06/23 03:12:18;;;;;;;10.05;2.97;;;14.40;99.90;;;;;;20969061;28;20032;-56
2022/06/23 03:22:30;;;;;;;10.25;1.88;;;14.00;99.90;;;;;;20980064;28;20079;-55
2022/06/23 03:32:41;;;;;;;13.27;2.35;;;13.70;99.90;;;;;;20979334;28;20040;-56
2022/06/23 03:42:54;;;;;;;7.57;1.60;;;13.90;99.90;;;;;;20978763;28;20036;-56
2022/06/23 03:53:36;;;;;;;13.48;1.95;;;14.30;99.90;;;;;;20981843;28;20593;-55
2022/06/23 04:03:59;;;;;;;9.48;1.52;;;14.20;99.90;;;;;;20803585;28;20049;-53
2022/06/23 04:14:05;;;;;;;7.85;1.10;;;14.30;99.90;;;;;;20835820;28;20561;-51
2022/06/23 04:24:24;;;;;;;6.50;1.08;;;14.60;99.90;;;;;;20817070;28;20493;-56
2022/06/23 04:34:41;;;;;;;4.30;1.05;;;14.50;99.90;;;;;;20857621;28;20072;-57
2022/06/23 04:44:54;;;;;;;13.50;3.00;;;14.60;99.90;;;;;;20993170;28;20032;-53
2022/06/23 04:55:10;;;;;;;9.65;3.40;;;14.40;99.90;;;;;;20990882;28;20045;-57
2022/06/23 05:05:19;;;;;;;15.00;3.75;;;14.60;99.90;;;;;;20990073;28;20041;-54
2022/06/23 05:15:37;;;;;;;8.63;2.27;;;14.80;99.90;;;;;;20972272;28;20086;-53
2022/06/23 05:25:43;;;;;;;11.32;3.13;;;14.80;99.90;;;;;;20971867;28;20453;-48
2022/06/23 05:35:54;;;;;;;8.05;3.20;;;14.80;99.90;;;;;;20970911;28;20041;-49
2022/06/23 05:46:01;;;;;;;11.27;3.20;;;15.00;99.90;;;;;;20969892;28;20512;-57
2022/06/23 05:56:15;;;;;;;5.70;3.30;;;15.30;99.90;;;;;;20940734;28;20442;-57
2022/06/23 06:06:17;;;;;;;7.38;3.40;;;15.70;99.90;;;;;;20886048;28;20070;-57
2022/06/23 06:16:20;;;;;;;7.22;3.30;;;20.50;99.90;;;;;;20885191;28;20037;-59
2022/06/23 06:26:29;;;;;;;5.20;2.92;;;20.70;99.90;;;;;;20870014;28;20488;-60
2022/06/23 06:36:39;;;;;;;11.50;4.32;;;24.30;99.90;;;;;;20884280;28;20041;-60
2022/06/23 06:46:44;;;;;;;11.00;3.50;;;26.50;96.30;;;;;;20884571;28;20037;-60
2022/06/23 06:56:51;;;;;;;8.60;4.22;;;26.20;94.40;;;;;;20913610;28;20032;-59
2022/06/23 07:07:08;;;;;;;8.32;5.00;;;27.60;96.00;;;;;;20964391;28;20040;-58
2022/06/23 07:17:24;;;;;;;11.25;4.97;;;;;;;;;;20965183;28;20049;-60
2022/06/23 07:27:44;;;;;;;10.52;6.03;;;30.50;99.90;;;;;;20966749;28;20105;-60
2022/06/23 07:38:07;;;;;;;11.85;5.95;;;31.80;92.50;;;;;;20964260;28;20090;-60
2022/06/23 07:48:10;;;;;;;10.90;5.30;;;32.00;94.00;;;;;;20963985;28;20045;-60
2022/06/23 07:58:17;;;;;;;9.10;5.43;;;30.50;84.90;;;;;;20966485;28;20089;-56
2022/06/23 08:08:25;;;;;;;9.80;4.50;;;29.70;90.50;;;;;;20978033;28;20037;-58
2022/06/23 08:18:51;;;;;;;9.02;4.03;;;28.10;90.60;;;;;;20976974;28;20418;-60
2022/06/23 08:28:59;;;;;;;15.48;4.55;;;28.30;90.50;;;;;;20976721;28;20032;-60
2022/06/23 08:39:11;;;;;;;9.07;6.20;;;29.30;90.10;;;;;;20975740;28;20036;-59
2022/06/23 08:49:32;;;;;;;13.60;6.53;;;29.70;90.10;;;;;;20974826;28;20394;-56
2022/06/23 08:59:48;;;;;;;11.27;6.43;;;29.80;91.10;;;;;;20915252;28;20098;-60
2022/06/23 09:10:27;;;;;;;14.65;6.65;;;30.20;90.50;;;;;;20890015;28;20381;-59
2022/06/23 09:20:47;;;;;;;9.40;5.00;;;28.70;91.40;;;;;;20491053;29;20047;-58
2022/06/23 09:31:03;;;;;;;14.30;5.22;;;28.20;92.00;;;;;;20474938;28;20039;-49
2022/06/23 09:41:11;;;;;;;12.82;5.38;;;28.10;91.60;;;;;;20474632;28;20423;-60
2022/06/23 09:51:38;;;;;;;18.90;6.65;;;28.20;92.30;;;;;;20605361;28;20046;-60
2022/06/23 10:01:52;;;;;;;14.27;6.07;;;29.70;92.00;;;;;;20863043;28;20033;-60
2022/06/23 10:11:54;;;;;;;15.98;8.27;;;30.40;88.60;;;;;;20884945;28;20033;-60
2022/06/23 10:22:20;;;;;;;16.25;8.48;;;29.50;89.80;;;;;;20962169;28;20495;-61
2022/06/23 10:33:02;;;;;;;13.93;7.13;;;29.80;91.40;;;;;;20959058;28;20041;-61
2022/06/23 10:43:34;;;;;;;13.15;7.53;;;31.10;90.80;;;;;;20966788;28;20044;-61
2022/06/23 10:54:02;;;;;;;17.30;7.95;;;31.10;89.10;;;;;;20966151;28;20395;-61
2022/06/23 11:04:38;;;;;;;16.15;7.28;;;30.40;90.40;;;;;;20965832;28;20106;-60
2022/06/23 11:14:55;;;;;;;17.42;6.85;;;30.30;89.70;;;;;;20629259;28;20541;-60
2022/06/23 11:25:01;;;;;;;16.92;7.28;;;29.00;91.00;;;;;;20710295;28;20080;-60
2022/06/23 11:35:20;;;;;;;24.05;12.50;;;26.90;93.60;;;;;;20717470;28;20130;-60
2022/06/23 11:45:42;;;;;;;19.40;10.50;;;25.70;94.60;;;;;;20771944;28;20107;-62
2022/06/23 11:55:57;;;;;;;22.92;10.70;;;27.50;95.50;;;;;;20869379;28;20041;-63
2022/06/23 12:06:33;;;;;;;22.60;9.18;;;29.70;93.50;;;;;;20813490;28;20095;-62
2022/06/23 12:16:47;;;;;;;24.38;8.57;;;29.90;91.00;;;;;;20812053;28;20559;-62
2022/06/23 12:27:02;;;;;;;18.15;7.93;;;29.80;91.80;;;;;;20811289;28;20034;-62
2022/06/23 12:37:17;;;;;;;14.63;8.47;;;30.10;91.10;;;;;;20811495;28;20550;-62
2022/06/23 12:47:30;;;;;;;19.13;8.98;;;29.70;90.80;;;;;;20808811;28;20039;-63
2022/06/23 12:58:02;;;;;;;23.17;7.38;;;28.80;91.10;;;;;;20852463;28;20120;-62
2022/06/23 13:08:10;;;;;;;24.42;8.80;;;28.20;93.20;;;;;;20890706;28;20037;-61
2022/06/23 13:18:35;;;;;;;19.83;7.60;;;27.30;93.40;;;;;;20937700;28;20040;-60
2022/06/23 13:28:42;;;;;;;28.10;8.45;;;26.00;93.30;;;;;;20971902;28;20048;-60
2022/06/23 13:39:11;;;;;;;17.50;7.82;;;25.40;93.90;;;;;;20954041;28;20032;-60
2022/06/23 13:49:39;;;;;;;18.58;8.00;;;24.50;96.20;;;;;;20970383;28;20036;-60
2022/06/23 13:59:58;;;;;;;29.13;9.05;;;25.20;97.30;;;;;;20909410;28;20079;-60
2022/06/23 14:10:02;;;;;;;;;;;25.30;96.40;;;;;;20886514;28;20395;-60
2022/06/23 14:20:15;;;;;;;21.38;9.65;;;24.50;97.70;;;;;;20885283;28;19924;-60
2022/06/23 14:30:27;;;;;;;33.25;10.95;;;24.20;99.50;;;;;;20884920;28;20810;-48
2022/06/23 14:41:14;;;;;;;17.63;9.45;;;24.00;99.50;;;;;;20884361;28;20029;-60
2022/06/23 14:51:28;;;;;;;23.30;8.95;;;23.80;99.90;;;;;;20883630;28;20037;-49
2022/06/23 15:01:54;;;;;;;21.70;8.88;;;23.70;99.70;;;;;;20958343;28;20071;-54
2022/06/23 15:12:00;;;;;;;29.25;10.60;;;23.20;99.90;;;;;;20977022;28;20045;-59
2022/06/23 15:32:52;;;;;;;20.63;10.20;;;22.00;99.90;;;;;;21064813;28;20040;-59
2022/06/23 15:43:22;;;;;;;23.47;9.27;;;21.70;99.90;;;;;;21064043;28;20168;-59
2022/06/23 15:53:30;;;;;;;23.70;9.30;;;21.50;99.90;;;;;;21054862;28;20290;-59
2022/06/23 16:03:50;;;;;;;23.52;11.30;;;21.30;99.90;;;;;;20978598;28;20037;-58
2022/06/23 16:14:02;;;;;;;27.50;10.98;;;21.20;99.90;;;;;;20977098;28;20053;-59
2022/06/23 16:24:33;;;;;;;21.35;9.02;;;21.00;99.90;;;;;;20975958;28;20078;-59
2022/06/23 16:35:07;;;;;;;27.85;11.05;;;21.60;99.90;;;;;;20976262;28;20029;-59
2022/06/23 16:45:18;;;;;;;25.08;10.50;;;21.80;99.90;;;;;;20975172;28;20032;-59
2022/06/23 16:55:36;;;;;;;16.60;8.18;;;21.60;99.90;;;;;;20998914;28;20093;-59
2022/06/23 17:05:45;;;;;;;20.23;9.55;;;21.10;99.90;;;;;;21057133;28;20032;-59
2022/06/23 17:15:52;;;;;;;25.77;8.95;;;20.90;99.90;;;;;;21056215;28;20044;-59
2022/06/23 17:25:59;;;;;;;27.85;9.05;;;20.70;99.90;;;;;;21055682;28;20363;-59
2022/06/23 17:36:34;;;;;;;20.63;9.63;;;20.50;99.90;;;;;;21037751;28;20040;-59
2022/06/23 17:46:39;;;;;;;24.58;8.80;;;20.30;99.90;;;;;;21051450;28;20039;-53
2022/06/23 17:57:01;;;;;;;19.40;9.00;;;19.60;99.90;;;;;;21017179;28;20379;-60
2022/06/23 18:07:05;;;;;;;21.30;8.77;;;19.40;99.90;;;;;;20968899;28;20044;-60
2022/06/23 18:17:25;;;;;;;20.77;9.20;;;19.20;99.90;;;;;;20968300;28;20057;-59
2022/06/23 18:27:46;;;;;;;24.25;8.73;;;19.00;99.90;;;;;;20967817;28;20063;-59
2022/06/23 18:38:03;;;;;;;21.45;9.30;;;18.60;99.90;;;;;;20968351;28;20040;-59
2022/06/23 18:48:16;;;;;;;28.02;9.95;;;18.20;99.90;;;;;;20966290;28;20051;-59
2022/06/23 18:58:25;;;;;;;19.83;8.00;;;17.90;99.90;;;;;;21015046;28;20052;-58
2022/06/23 19:08:32;;;;;;;25.07;7.17;;;17.80;99.90;;;;;;21049677;28;20109;-47
2022/06/23 19:19:01;;;;;;;24.58;6.97;;;17.70;99.90;;;;;;21048973;28;20044;-52
2022/06/23 19:29:10;;;;;;;18.27;5.93;;;17.50;99.90;;;;;;21049415;28;20110;-59
2022/06/23 19:39:12;;;;;;;19.40;7.23;;;17.30;99.90;;;;;;21048306;28;20049;-59
2022/06/23 19:49:17;;;;;;;21.25;6.95;;;17.40;99.90;;;;;;21048223;28;20058;-59
2022/06/23 19:59:37;;;;;;;15.48;6.03;;;17.40;99.90;;;;;;21002436;28;20044;-48
2022/06/23 20:09:49;;;;;;;20.25;7.38;;;17.50;99.90;;;;;;20978037;28;20387;-59
2022/06/23 20:20:18;;;;;;;22.58;6.90;;;17.70;99.90;;;;;;20977026;28;20044;-59
2022/06/23 20:30:33;;;;;;;23.40;6.22;;;17.80;99.90;;;;;;20721739;28;20184;-59
2022/06/23 20:41:00;;;;;;;19.27;5.55;;;17.80;99.90;;;;;;20720462;28;20042;-57
2022/06/23 20:51:17;;;;;;;19.05;6.38;;;17.80;99.90;;;;;;20719791;28;20038;-51
2022/06/23 21:01:27;;;;;;;20.60;6.85;;;17.90;99.90;;;;;;20862836;28;20044;-59
2022/06/23 21:11:59;;;;;;;21.10;7.25;;;17.80;99.90;;;;;;21056186;28;20044;-59
2022/06/23 21:22:41;;;;;;;21.30;7.43;;;17.70;99.90;;;;;;21055835;28;20052;-59
2022/06/23 21:33:04;;;;;;;24.15;7.30;;;17.50;99.90;;;;;;21042373;28;20089;-59
2022/06/23 21:43:09;;;;;;;21.13;5.25;;;17.40;99.90;;;;;;21055328;28;20086;-59
2022/06/23 21:53:59;;;;;;;20.60;6.18;;;17.30;99.90;;;;;;21047535;28;20090;-59
2022/06/23 22:04:13;;;;;;;15.40;4.05;;;17.10;99.90;;;;;;20714151;28;20054;-59
2022/06/23 22:14:39;;;;;;;16.20;4.47;;;16.90;99.90;;;;;;20713128;28;20046;-59
2022/06/23 22:35:33;;;;;;;12.52;3.80;;;16.40;99.90;;;;;;20790045;28;20040;-58
2022/06/23 22:45:44;;;;;;;13.65;3.42;;;16.50;99.90;;;;;;20900622;28;20443;-59
2022/06/23 22:55:54;;;;;;;12.70;3.45;;;16.70;99.90;;;;;;20927871;28;20040;-58
2022/06/23 23:06:30;;;;;;;10.88;3.28;;;16.80;99.90;;;;;;20983798;28;20033;-58
2022/06/23 23:16:39;;;;;;;12.75;3.20;;;16.70;99.90;;;;;;21016827;28;20086;-58
2022/06/23 23:26:48;;;;;;;;;;;16.90;99.90;;;;;;21033589;28;20383;-47
2022/06/23 23:36:50;;;;;;;14.25;3.03;;;16.70;99.90;;;;;;21064592;28;19912;-58
2022/06/23 23:46:58;;;;;;;9.18;2.65;;;16.70;99.90;;;;;;21063960;28;20180;-59
2022/06/23 23:57:04;;;;;;;7.60;2.05;;;16.30;99.90;;;;;;21024659;28;20036;-58
